Airfield :
LOGIN :

Register | Disclaimer

   EN    FR    IT 

 










Legend :    VFR   Marginal VFR   IFR   Intensive IFR   Very Intensive IFR
Visi :
Ceiling :
>= 8 km
>= 3000ft
5 to 8 km
1000 to 3000 ft
1500m to 5 km
500 to 1000 ft
800 to 1500m
200 to 500 ft
< 800m
< 200 ft
Symbols :   Thunderstorms  Fog  Heavy snow  Heavy precipitations  Wind > 20 kt
SIGMETs :     Misc.  Thunderstorms  Icing  Turbulence  Mountain Waves  Volcanic Ashes







- Airport Elevation : 24 ft
- IATA code : IBZ


LEIB - Ibiza

CURRENT METAR :
  • 301600Z 21017KT 9999 BKN011 18/15 Q1011 NOSIG

EXPIRED METARs :
  • 301530Z 21016KT 9999 BKN011 19/14 Q1011 NOSIG
  • 301500Z 21015KT 180V240 9999 BKN011 19/15 Q1011 NOSIG
  • 301430Z 21015KT 9999 FEW013 SCT018 19/15 Q1012 NOSIG
  • 301400Z 20014KT 170V240 9999 FEW013 SCT018 20/15 Q1012 NOSIG
  • 301330Z 21014KT 170V240 9999 FEW013 SCT018 BKN023 19/14 Q1013 NOSIG

TAF AMD TAF LEIB
Valid from the 30 at 15:00 until the 01 at 15:00 UTC


301502Z 3015/0115 21010KT 9999 BKN020 TX20/0112Z TN11/0106Z
PROB30
TEMPO 3015/3018 22015G25KT BKN010
BECMG 3022/3024 30015KT
TEMPO 3021/0103 33015G25KT
BECMG 0103/0106 36012KT
BECMG 0112/0114 19008KT
No reported NOTAMs for that airfield.
2 SIGMETs reported for the Barcelona FIR (LECB) :
 
Embedded thunderstorms
LECB SIGMET 2 VALID 301622/301900 LEVA
LECB BARCELONA FIR/UIR EMBD TS OBS AT 1622Z WI N4240 W00002 - N4140 W00010 - N4140 E00140 - N4230 E002 TOP FL360 MOV E NC=
Severe mountain waves
LECB SIGMET 1 VALID 301333/301700 LEVA
LECB BARCELONA FIR/UIR SEV MTW OBS AT 1333Z N OF LINE N4230 W00010 - N4210 E00220 FL060/350 STNR NC=



MET'MAP, your aeronautical weather chart ! - Copyright ORBIFLY December 2007 - Disclaimer

ORBIFLY MET'MAP TEAM :

Programming & Development : Alexandra Zaïnal
Concept & Development : Baudouin d'Aumeries
Co-Development & Prog : Marc-Olivier Méhu
Technical & hardware support : Manuel Goepfert

Contact : metmap@orbifly.com




SOURCES & CREDITS :

   NOAA